Time;durP1;ratioP1;P1;durP2;ratioP2;P2;SDS_P1;SDS_P2;PMS_P1;PMS_P2;Temp;Humidity;BMP_temperature;BMP_pressure;BME280_temperature;BME280_humidity;BME280_pressure;Samples;Min_cycle;Max_cycle;Signal;HPM_P1;HPM_P2
2022/04/08 00:00:34;;;;;;;4.50;1.90;;;7.30;99.90;;;;;;5085691;28;20197;-74
2022/04/08 00:03:01;;;;;;;4.63;2.25;;;7.30;99.90;;;;;;5089519;28;20200;-74
2022/04/08 00:05:28;;;;;;;4.40;2.30;;;7.20;99.90;;;;;;5088846;28;20220;-73
2022/04/08 00:07:56;;;;;;;5.88;1.40;;;7.30;99.90;;;;;;5091120;28;20291;-72
2022/04/08 00:10:23;;;;;;;7.45;1.60;;;7.30;99.90;;;;;;5086146;28;20288;-74
2022/04/08 00:12:50;;;;;;;4.00;2.60;;;7.20;99.90;;;;;;5085323;28;20773;-73
2022/04/08 00:15:18;;;;;;;2.05;1.30;;;7.20;99.90;;;;;;5089515;28;20311;-72
2022/04/08 00:17:44;;;;;;;3.15;1.23;;;7.10;99.90;;;;;;5087910;28;20206;-72
2022/04/08 00:20:12;;;;;;;5.18;1.88;;;7.10;99.90;;;;;;5081937;28;20194;-73
2022/04/08 00:22:41;;;;;;;3.65;1.20;;;7.10;99.90;;;;;;5087053;28;20285;-73
2022/04/08 00:25:10;;;;;;;1.90;1.00;;;7.10;99.90;;;;;;5088574;28;20252;-73
2022/04/08 00:27:38;;;;;;;6.55;1.50;;;7.10;99.90;;;;;;5079426;28;20538;-72
2022/04/08 00:30:06;;;;;;;6.28;1.10;;;7.10;99.90;;;;;;5087762;28;20212;-73
2022/04/08 00:32:34;;;;;;;4.80;2.45;;;7.10;99.90;;;;;;5085915;28;20206;-73
2022/04/08 00:35:01;;;;;;;5.68;1.33;;;7.10;99.90;;;;;;5087734;28;20228;-72
2022/04/08 00:37:28;;;;;;;6.93;1.20;;;7.10;99.90;;;;;;5085912;28;20199;-73
2022/04/08 00:39:56;;;;;;;4.30;1.98;;;7.10;99.90;;;;;;5083844;28;20285;-73
2022/04/08 00:42:24;;;;;;;6.70;1.40;;;7.10;99.90;;;;;;5077167;28;20238;-73
2022/04/08 00:44:51;;;;;;;5.95;1.10;;;7.10;99.90;;;;;;5078256;28;20258;-73
2022/04/08 00:47:18;;;;;;;5.97;1.25;;;7.20;99.90;;;;;;5083697;28;20278;-73
2022/04/08 00:49:45;;;;;;;3.03;1.20;;;7.20;99.90;;;;;;5081241;28;20255;-74
2022/04/08 00:52:12;;;;;;;5.68;1.67;;;7.20;99.90;;;;;;5092139;28;20206;-73
2022/04/08 00:54:41;;;;;;;7.50;1.55;;;7.20;99.90;;;;;;5084678;28;20312;-73
2022/04/08 00:57:08;;;;;;;4.07;1.67;;;7.20;99.90;;;;;;5089341;28;20214;-74
2022/04/08 00:59:36;;;;;;;2.03;1.10;;;7.20;99.90;;;;;;5078110;28;20285;-72
2022/04/08 01:02:04;;;;;;;9.77;1.90;;;7.10;99.90;;;;;;5083425;28;20203;-73
2022/04/08 01:04:31;;;;;;;11.35;2.63;;;7.10;99.90;;;;;;5088852;28;20225;-72
2022/04/08 01:06:58;;;;;;;9.15;1.83;;;7.10;99.90;;;;;;5089540;28;20215;-72
2022/04/08 01:09:26;;;;;;;5.50;1.98;;;7.00;99.90;;;;;;5085052;28;20215;-73
2022/04/08 01:11:53;;;;;;;7.72;2.55;;;7.10;99.90;;;;;;5088539;28;20200;-73
2022/04/08 01:14:20;;;;;;;6.97;1.70;;;7.10;99.90;;;;;;5081212;28;20592;-73
2022/04/08 01:16:48;;;;;;;5.65;1.83;;;7.00;99.90;;;;;;5067160;28;20300;-73
2022/04/08 01:19:15;;;;;;;5.20;1.05;;;7.00;99.90;;;;;;5084430;28;20289;-73
2022/04/08 01:21:42;;;;;;;9.27;1.45;;;7.00;99.90;;;;;;5087501;28;20228;-74
2022/04/08 01:24:12;;;;;;;2.33;0.98;;;7.00;99.90;;;;;;5087172;28;20310;-73
2022/04/08 01:26:41;;;;;;;8.80;1.83;;;7.00;99.90;;;;;;5081503;28;20571;-72
2022/04/08 01:29:08;;;;;;;8.77;1.30;;;7.10;99.90;;;;;;5089413;28;20205;-72
2022/04/08 01:31:35;;;;;;;5.93;1.55;;;7.10;99.90;;;;;;5086943;28;20199;-72
2022/04/08 01:34:02;;;;;;;5.70;1.63;;;7.10;99.90;;;;;;5087848;28;20281;-73
2022/04/08 01:36:29;;;;;;;5.30;1.08;;;7.10;99.90;;;;;;5085947;28;20207;-72
2022/04/08 01:38:56;;;;;;;4.70;1.52;;;7.10;99.90;;;;;;5088321;28;20556;-72
2022/04/08 01:41:22;;;;;;;4.03;1.13;;;7.10;99.90;;;;;;5081909;28;20311;-71
2022/04/08 01:43:51;;;;;;;5.28;1.10;;;7.10;99.90;;;;;;5086023;28;20237;-72
2022/04/08 01:46:18;;;;;;;6.32;1.38;;;7.10;99.90;;;;;;5087977;28;20218;-73
2022/04/08 01:48:44;;;;;;;6.90;1.48;;;7.00;99.90;;;;;;5078734;28;20201;-74
2022/04/08 01:51:11;;;;;;;5.15;2.03;;;7.00;99.90;;;;;;5080301;28;20199;-73
2022/04/08 01:53:38;;;;;;;4.28;1.85;;;7.10;99.90;;;;;;5086652;28;20225;-72
2022/04/08 01:56:05;;;;;;;11.15;1.55;;;7.00;99.90;;;;;;5088444;28;20283;-73
2022/04/08 01:58:32;;;;;;;4.55;1.20;;;7.00;99.90;;;;;;5087517;28;20282;-73
2022/04/08 02:01:01;;;;;;;9.32;1.60;;;7.00;99.90;;;;;;5081868;28;20203;-72
2022/04/08 02:03:28;;;;;;;5.70;1.52;;;6.90;99.90;;;;;;5085054;28;20283;-74
2022/04/08 02:05:56;;;;;;;5.60;2.50;;;6.80;99.90;;;;;;5087356;28;20538;-72
2022/04/08 02:08:23;;;;;;;2.38;1.02;;;6.80;99.90;;;;;;5084934;28;20208;-73
2022/04/08 02:10:50;;;;;;;8.43;1.40;;;6.70;99.90;;;;;;5084440;28;20231;-72
2022/04/08 02:13:17;;;;;;;7.13;1.45;;;6.70;99.90;;;;;;5091116;28;20216;-74
2022/04/08 02:15:45;;;;;;;7.20;1.95;;;6.60;99.90;;;;;;5082514;28;20216;-73
2022/04/08 02:18:14;;;;;;;4.32;1.25;;;6.60;99.90;;;;;;5087206;28;20209;-70
2022/04/08 02:20:42;;;;;;;5.18;2.03;;;6.60;99.90;;;;;;5086132;28;20212;-71
2022/04/08 02:23:09;;;;;;;5.32;1.92;;;6.60;99.90;;;;;;5087185;28;20213;-72
2022/04/08 02:25:36;;;;;;;7.18;1.73;;;6.60;99.90;;;;;;5085006;28;20257;-72
2022/04/08 02:28:04;;;;;;;8.35;1.60;;;6.60;99.90;;;;;;5086416;28;20203;-72
2022/04/08 02:30:31;;;;;;;6.85;1.67;;;6.50;99.90;;;;;;5081581;28;20230;-70
2022/04/08 02:33:01;;;;;;;2.65;1.27;;;6.50;99.90;;;;;;5084051;28;20560;-71
2022/04/08 02:35:30;;;;;;;3.55;0.90;;;6.30;99.90;;;;;;5087909;28;20222;-71
2022/04/08 02:37:57;;;;;;;2.35;0.90;;;6.20;99.90;;;;;;5081325;28;20286;-70
2022/04/08 02:40:24;;;;;;;2.22;0.93;;;6.20;99.90;;;;;;5087036;28;20198;-72
2022/04/08 02:42:51;;;;;;;2.10;0.90;;;6.00;99.90;;;;;;5089867;28;20211;-72
2022/04/08 02:45:18;;;;;;;4.90;1.38;;;5.90;99.90;;;;;;5087445;28;20658;-70
2022/04/08 02:47:46;;;;;;;4.45;1.60;;;5.90;99.90;;;;;;5087853;28;20211;-70
2022/04/08 02:50:13;;;;;;;2.50;1.90;;;5.90;99.90;;;;;;5078541;28;20195;-72
2022/04/08 02:52:41;;;;;;;3.58;1.75;;;5.80;99.90;;;;;;5089879;28;20225;-71
2022/04/08 02:55:09;;;;;;;12.10;3.80;;;5.70;99.90;;;;;;5085663;28;20314;-71
2022/04/08 02:57:44;;;;;;;7.10;2.10;;;5.50;99.90;;;;;;5087856;28;20213;-72
2022/04/08 03:00:14;;;;;;;7.47;1.55;;;5.40;99.90;;;;;;5073888;28;20213;-71
2022/04/08 03:02:41;;;;;;;4.43;1.10;;;5.40;99.90;;;;;;5084118;28;20195;-70
2022/04/08 03:05:09;;;;;;;1.42;0.95;;;5.30;99.90;;;;;;5090322;28;20635;-70
2022/04/08 03:07:36;;;;;;;2.65;1.05;;;5.40;99.90;;;;;;5088127;28;20205;-72
2022/04/08 03:10:05;;;;;;;1.98;0.95;;;5.30;99.90;;;;;;5090200;28;20650;-71
2022/04/08 03:12:32;;;;;;;6.10;1.00;;;5.40;99.90;;;;;;5086904;28;20204;-73
2022/04/08 03:14:59;;;;;;;1.27;0.98;;;5.30;99.90;;;;;;5090215;28;20312;-72
2022/04/08 03:17:27;;;;;;;1.90;0.90;;;5.30;99.90;;;;;;5085152;28;20200;-73
2022/04/08 03:19:56;;;;;;;2.17;1.00;;;5.30;99.90;;;;;;5084581;28;20300;-72
2022/04/08 03:22:23;;;;;;;3.20;1.40;;;5.30;99.90;;;;;;5071383;28;20222;-72
2022/04/08 03:24:52;;;;;;;1.70;1.33;;;5.30;99.90;;;;;;5078313;28;20309;-73
2022/04/08 03:27:20;;;;;;;2.00;1.10;;;5.30;99.90;;;;;;5088361;28;20209;-72
2022/04/08 03:29:48;;;;;;;4.38;1.40;;;5.30;99.90;;;;;;5089367;28;20295;-73
2022/04/08 03:32:15;;;;;;;2.30;1.40;;;5.40;99.90;;;;;;5086296;28;20198;-73
2022/04/08 03:34:42;;;;;;;2.08;1.10;;;5.30;99.90;;;;;;5087058;28;20223;-72
2022/04/08 03:37:10;;;;;;;6.05;1.67;;;5.40;99.90;;;;;;5092176;28;20285;-71
2022/04/08 03:39:37;;;;;;;7.93;2.20;;;5.30;99.90;;;;;;5083687;28;20195;-71
2022/04/08 03:42:04;;;;;;;1.88;1.10;;;5.40;99.90;;;;;;5089405;28;20244;-71
2022/04/08 03:44:32;;;;;;;7.82;2.17;;;5.40;99.90;;;;;;5087000;28;20704;-73
2022/04/08 03:46:59;;;;;;;2.78;1.45;;;5.40;99.90;;;;;;5089853;28;20529;-72
2022/04/08 03:49:26;;;;;;;3.22;0.95;;;5.40;99.90;;;;;;5074861;28;20290;-72
2022/04/08 03:51:54;;;;;;;5.03;3.55;;;5.30;99.90;;;;;;5088583;28;20258;-71
2022/04/08 03:54:21;;;;;;;3.00;1.17;;;5.30;99.90;;;;;;5087295;28;20229;-71
2022/04/08 03:56:48;;;;;;;8.57;1.10;;;5.40;99.90;;;;;;5090736;28;20204;-74
2022/04/08 03:59:16;;;;;;;5.50;3.72;;;5.40;99.90;;;;;;5085917;28;20233;-76
2022/04/08 04:01:44;;;;;;;5.53;1.60;;;5.20;99.90;;;;;;5085257;28;20194;-72
2022/04/08 04:04:11;;;;;;;6.65;1.70;;;5.30;99.90;;;;;;5082334;28;20560;-72
2022/04/08 04:06:38;;;;;;;5.75;1.40;;;5.20;99.90;;;;;;5087275;28;20622;-71
2022/04/08 04:09:05;;;;;;;2.90;1.60;;;5.20;99.90;;;;;;5087351;28;20293;-72
2022/04/08 04:11:32;;;;;;;6.38;1.70;;;5.30;99.90;;;;;;5084966;28;20206;-72
2022/04/08 04:13:59;;;;;;;6.18;2.10;;;5.20;99.90;;;;;;5081827;28;20237;-72
2022/04/08 04:16:26;;;;;;;3.63;1.38;;;5.10;99.90;;;;;;5091698;28;20205;-72
2022/04/08 04:18:55;;;;;;;3.47;1.85;;;5.10;99.90;;;;;;5082700;28;20207;-72
2022/04/08 04:21:22;;;;;;;3.67;1.33;;;5.10;99.90;;;;;;5078055;28;20523;-72
2022/04/08 04:23:49;;;;;;;6.30;1.88;;;5.00;99.90;;;;;;5083273;28;20241;-73
2022/04/08 04:26:16;;;;;;;3.17;1.45;;;4.90;99.90;;;;;;5090851;28;20194;-73
2022/04/08 04:28:43;;;;;;;4.47;2.00;;;5.00;99.90;;;;;;5081749;28;20290;-73
2022/04/08 04:31:10;;;;;;;6.57;2.13;;;4.90;99.90;;;;;;5088921;28;20280;-73
2022/04/08 04:33:37;;;;;;;12.93;1.70;;;4.90;99.90;;;;;;5088412;28;20304;-73
2022/04/08 04:36:05;;;;;;;8.10;2.40;;;4.90;99.90;;;;;;5087964;28;20591;-72
2022/04/08 04:38:32;;;;;;;11.18;3.33;;;4.90;99.90;;;;;;5084358;28;20380;-73
2022/04/08 04:40:59;;;;;;;10.82;1.85;;;5.00;99.90;;;;;;5085288;28;20210;-75
2022/04/08 04:43:26;;;;;;;8.05;2.13;;;5.10;99.90;;;;;;5088760;28;20289;-74
2022/04/08 04:45:53;;;;;;;4.45;1.45;;;5.10;99.90;;;;;;5083131;28;20320;-74
2022/04/08 04:48:22;;;;;;;12.48;2.05;;;5.10;99.90;;;;;;5067752;28;20207;-73
2022/04/08 04:50:49;;;;;;;7.45;1.77;;;5.20;99.90;;;;;;5080834;28;20267;-73
2022/04/08 04:53:18;;;;;;;6.70;1.95;;;5.20;99.90;;;;;;5086725;28;20255;-72
2022/04/08 04:55:45;;;;;;;8.35;2.55;;;5.30;99.90;;;;;;5087133;28;20334;-70
2022/04/08 04:58:12;;;;;;;4.90;2.20;;;5.20;99.90;;;;;;5063914;28;20203;-72
2022/04/08 05:00:39;;;;;;;9.88;2.85;;;5.30;99.90;;;;;;5060688;28;20238;-72
2022/04/08 05:03:08;;;;;;;3.75;1.30;;;5.20;99.90;;;;;;5056090;28;20196;-72
2022/04/08 05:05:35;;;;;;;5.70;2.00;;;5.20;99.90;;;;;;5060824;28;20685;-72
2022/04/08 05:08:02;;;;;;;11.20;2.50;;;5.20;99.90;;;;;;5073121;28;20203;-72
2022/04/08 05:10:32;;;;;;;5.75;1.92;;;5.20;99.90;;;;;;5083209;28;20214;-71
2022/04/08 05:12:59;;;;;;;5.70;1.50;;;5.20;99.90;;;;;;5086546;28;20263;-73
2022/04/08 05:15:27;;;;;;;4.68;2.03;;;5.10;99.90;;;;;;5087521;28;20554;-71
2022/04/08 05:17:55;;;;;;;4.22;2.33;;;5.10;99.90;;;;;;5081722;28;20209;-70
2022/04/08 05:20:22;;;;;;;9.75;2.40;;;5.20;99.90;;;;;;5077449;28;20578;-71
2022/04/08 05:22:49;;;;;;;6.50;2.35;;;5.20;99.90;;;;;;5088771;28;20269;-72
2022/04/08 05:25:16;;;;;;;2.15;1.35;;;5.20;99.90;;;;;;5084671;28;20210;-71
2022/04/08 05:27:44;;;;;;;4.07;1.40;;;5.30;99.90;;;;;;5081922;28;20530;-70
2022/04/08 05:30:13;;;;;;;3.15;2.03;;;5.30;99.90;;;;;;5081794;28;20198;-72
2022/04/08 05:32:40;;;;;;;3.95;1.75;;;5.40;99.90;;;;;;5087243;28;20252;-72
2022/04/08 05:35:08;;;;;;;4.55;2.78;;;5.40;99.90;;;;;;5088615;28;20230;-71
2022/04/08 05:37:39;;;;;;;5.50;2.50;;;5.40;99.90;;;;;;5081378;28;20274;-73
2022/04/08 05:40:06;;;;;;;5.50;1.80;;;5.40;99.90;;;;;;5086788;28;20206;-75
2022/04/08 05:42:33;;;;;;;2.42;1.52;;;5.30;99.90;;;;;;5084818;28;20217;-75
2022/04/08 05:45:02;;;;;;;4.30;1.15;;;5.40;99.90;;;;;;5087456;28;20301;-73
2022/04/08 05:47:29;;;;;;;7.13;1.80;;;5.60;99.90;;;;;;5076306;28;20927;-74
2022/04/08 05:49:59;;;;;;;2.85;1.38;;;6.30;99.90;;;;;;5076549;28;20297;-74
2022/04/08 05:52:26;;;;;;;3.20;1.42;;;7.00;99.90;;;;;;5088919;28;20195;-74
2022/04/08 05:54:53;;;;;;;2.85;1.20;;;7.40;99.90;;;;;;5079239;28;20229;-73
2022/04/08 05:57:20;;;;;;;3.20;1.13;;;8.00;99.90;;;;;;5082125;28;20446;-73
2022/04/08 05:59:47;;;;;;;4.07;1.88;;;8.10;99.90;;;;;;5085291;28;20221;-71
2022/04/08 06:02:15;;;;;;;5.57;1.00;;;7.70;99.90;;;;;;5083103;28;20698;-73
2022/04/08 06:04:42;;;;;;;1.35;1.20;;;7.60;99.90;;;;;;5082492;28;20783;-72
2022/04/08 06:07:09;;;;;;;2.75;1.10;;;7.00;99.90;;;;;;5083136;28;20298;-74
2022/04/08 06:09:36;;;;;;;6.25;1.77;;;6.70;99.90;;;;;;5076899;28;20296;-73
2022/04/08 06:12:03;;;;;;;2.10;1.27;;;6.50;99.90;;;;;;5064857;28;20286;-72
2022/04/08 06:14:30;;;;;;;3.47;1.88;;;6.00;99.90;;;;;;5077265;28;20319;-72
2022/04/08 06:16:57;;;;;;;1.85;1.13;;;5.90;99.90;;;;;;5091000;28;20207;-73
2022/04/08 06:19:25;;;;;;;2.90;1.27;;;6.20;99.90;;;;;;5081005;28;20264;-73
2022/04/08 06:21:54;;;;;;;4.15;1.63;;;7.40;99.90;;;;;;5087869;28;20204;-72
2022/04/08 06:24:21;;;;;;;3.05;1.45;;;8.00;99.90;;;;;;5084288;28;20229;-72
2022/04/08 06:26:48;;;;;;;3.28;1.65;;;8.50;99.90;;;;;;5079127;28;20205;-75
2022/04/08 06:29:15;;;;;;;4.68;2.58;;;9.90;99.90;;;;;;5065029;28;20661;-71
2022/04/08 06:31:42;;;;;;;4.20;1.65;;;10.80;99.90;;;;;;5085588;28;20681;-75
2022/04/08 06:34:09;;;;;;;4.05;2.63;;;11.00;99.90;;;;;;5092378;28;20265;-70
2022/04/08 06:36:37;;;;;;;4.38;2.13;;;10.90;99.90;;;;;;5085227;28;20619;-73
2022/04/08 06:39:05;;;;;;;3.25;1.50;;;10.20;99.90;;;;;;5090686;28;20388;-74
2022/04/08 06:41:32;;;;;;;5.80;2.03;;;9.50;99.90;;;;;;5080658;28;20277;-74
2022/04/08 06:43:59;;;;;;;4.22;2.88;;;9.70;99.90;;;;;;5065286;28;20310;-72
2022/04/08 06:46:26;;;;;;;6.28;3.05;;;9.60;99.90;;;;;;5082629;28;20213;-72
2022/04/08 06:48:54;;;;;;;3.03;2.03;;;9.10;99.90;;;;;;5087505;28;20287;-74
2022/04/08 06:51:21;;;;;;;7.10;3.78;;;8.70;99.90;;;;;;5083719;28;20582;-73
2022/04/08 06:53:49;;;;;;;4.32;2.40;;;7.80;99.90;;;;;;5089247;28;20639;-73
2022/04/08 06:56:16;;;;;;;8.73;2.92;;;7.30;99.90;;;;;;5090691;28;20621;-72
2022/04/08 06:58:43;;;;;;;5.60;2.17;;;7.20;99.90;;;;;;5086228;28;20292;-71
2022/04/08 07:01:09;;;;;;;5.65;2.33;;;7.20;99.90;;;;;;5086471;28;20289;-72
2022/04/08 07:03:37;;;;;;;7.80;3.78;;;7.20;99.90;;;;;;5093783;28;20301;-73
2022/04/08 07:06:04;;;;;;;4.05;1.60;;;7.20;99.90;;;;;;5075603;28;20558;-72
2022/04/08 07:08:31;;;;;;;8.27;1.70;;;7.00;99.90;;;;;;5083061;28;20289;-74
2022/04/08 07:10:59;;;;;;;6.15;1.92;;;6.90;99.90;;;;;;5070863;28;20229;-72
2022/04/08 07:13:26;;;;;;;3.35;1.60;;;6.90;99.90;;;;;;5080184;28;20210;-72
2022/04/08 07:15:54;;;;;;;2.63;1.52;;;6.80;99.90;;;;;;5068590;28;20223;-73
2022/04/08 07:18:22;;;;;;;2.38;1.50;;;6.80;99.90;;;;;;5075085;28;20545;-73
2022/04/08 07:20:50;;;;;;;2.28;1.05;;;8.30;99.90;;;;;;5067813;28;20210;-74
2022/04/08 07:23:17;;;;;;;3.53;1.50;;;9.90;99.90;;;;;;5080909;28;20211;-74
2022/04/08 07:25:44;;;;;;;2.45;1.17;;;11.10;99.90;;;;;;5065164;28;20253;-73
2022/04/08 07:28:12;;;;;;;2.78;1.30;;;11.30;99.90;;;;;;5077823;28;20724;-74
2022/04/08 07:30:39;;;;;;;3.65;1.50;;;10.60;99.90;;;;;;5067371;28;20258;-74
2022/04/08 07:33:06;;;;;;;5.43;1.23;;;10.90;99.90;;;;;;5084319;28;20565;-74
2022/04/08 07:35:34;;;;;;;2.05;0.98;;;10.30;99.90;;;;;;5069348;28;20712;-73
2022/04/08 07:38:03;;;;;;;1.50;1.10;;;10.50;99.90;;;;;;5083669;28;20212;-74
2022/04/08 07:40:30;;;;;;;8.50;2.65;;;10.30;99.90;;;;;;5068329;28;20205;-72
2022/04/08 07:42:57;;;;;;;5.15;1.40;;;10.00;99.90;;;;;;5060053;28;20266;-71
2022/04/08 07:45:29;;;;;;;11.35;1.83;;;9.40;99.90;;;;;;5068082;28;20218;-72
2022/04/08 07:47:58;;;;;;;1.90;1.58;;;9.10;99.90;;;;;;5073423;28;20203;-71
2022/04/08 07:50:27;;;;;;;9.55;2.25;;;8.80;99.90;;;;;;5067384;28;20299;-73
2022/04/08 07:52:55;;;;;;;4.60;2.28;;;8.30;99.90;;;;;;5070390;28;20265;-74
2022/04/08 07:55:24;;;;;;;3.38;1.58;;;8.00;99.90;;;;;;5067362;28;20397;-72
2022/04/08 07:57:52;;;;;;;5.80;1.20;;;7.90;99.90;;;;;;5069510;28;20214;-74
2022/04/08 08:00:20;;;;;;;3.90;1.25;;;8.10;99.90;;;;;;5061749;28;20207;-72
2022/04/08 08:02:50;;;;;;;2.95;1.42;;;8.30;99.90;;;;;;5064616;28;20660;-72
2022/04/08 08:05:17;;;;;;;3.20;1.90;;;8.00;99.90;;;;;;5070941;28;20241;-73
2022/04/08 08:07:46;;;;;;;5.60;3.33;;;9.10;99.90;;;;;;5067476;28;20234;-72
2022/04/08 08:10:16;;;;;;;4.25;1.65;;;10.50;99.90;;;;;;5063741;28;20233;-71
2022/04/08 08:12:43;;;;;;;10.05;2.53;;;10.50;99.90;;;;;;5068753;28;20200;-72
2022/04/08 08:15:10;;;;;;;6.45;1.60;;;10.30;99.90;;;;;;5061887;28;20235;-73
2022/04/08 08:17:38;;;;;;;3.13;1.90;;;10.00;99.90;;;;;;5067274;28;20223;-71
2022/04/08 08:20:08;;;;;;;7.53;2.03;;;9.70;99.90;;;;;;5067587;28;20410;-74
2022/04/08 08:22:35;;;;;;;3.38;1.40;;;10.10;99.90;;;;;;5064145;28;20254;-70
2022/04/08 08:25:03;;;;;;;2.88;1.50;;;9.70;99.90;;;;;;5064742;28;20215;-71
2022/04/08 08:27:36;;;;;;;4.22;1.45;;;9.20;99.90;;;;;;5063710;28;20208;-71
2022/04/08 08:30:04;;;;;;;5.03;1.55;;;9.30;99.90;;;;;;5064992;28;20253;-71
2022/04/08 08:32:32;;;;;;;4.85;1.35;;;9.20;99.90;;;;;;5074101;28;20273;-73
2022/04/08 08:34:59;;;;;;;5.80;1.85;;;9.10;99.90;;;;;;5075428;28;20454;-70
2022/04/08 08:37:28;;;;;;;5.55;1.92;;;9.30;99.90;;;;;;5088248;28;20199;-70
2022/04/08 08:39:56;;;;;;;2.83;1.10;;;9.10;99.90;;;;;;5089644;28;20255;-68
2022/04/08 08:42:25;;;;;;;5.05;2.00;;;9.10;99.90;;;;;;5086422;28;20223;-71
2022/04/08 08:44:52;;;;;;;4.25;1.80;;;9.30;99.90;;;;;;5089116;28;20218;-70
2022/04/08 08:47:19;;;;;;;4.28;1.52;;;9.30;99.90;;;;;;5069389;28;20206;-70
2022/04/08 08:49:50;;;;;;;3.25;1.45;;;9.70;99.90;;;;;;5071548;28;20211;-71
2022/04/08 08:52:19;;;;;;;2.50;1.30;;;9.90;99.90;;;;;;5083532;28;20210;-69
2022/04/08 08:54:48;;;;;;;5.00;1.50;;;10.90;99.90;;;;;;5087791;28;20233;-70
2022/04/08 08:57:17;;;;;;;3.47;1.10;;;10.70;99.90;;;;;;5086499;28;20230;-71
2022/04/08 08:59:45;;;;;;;10.98;1.40;;;11.20;99.90;;;;;;5084969;28;20570;-69
2022/04/08 09:02:13;;;;;;;4.97;1.40;;;10.90;99.90;;;;;;5086242;28;20200;-69
2022/04/08 09:04:42;;;;;;;2.90;1.50;;;10.50;99.90;;;;;;5076750;28;20697;-70
2022/04/08 09:07:09;;;;;;;4.70;1.67;;;9.80;99.90;;;;;;5071672;28;20653;-73
2022/04/08 09:09:36;;;;;;;2.25;1.45;;;9.80;99.90;;;;;;5085466;28;20211;-71
2022/04/08 09:12:16;;;;;;;7.10;1.17;;;10.10;99.90;;;;;;5080211;28;20203;-71
2022/04/08 09:14:48;;;;;;;4.03;1.77;;;10.20;99.90;;;;;;5079039;28;20226;-70
2022/04/08 09:17:17;;;;;;;4.97;1.98;;;9.80;99.90;;;;;;5079556;28;20665;-72
2022/04/08 09:19:47;;;;;;;3.65;1.17;;;9.90;99.90;;;;;;5074595;28;20202;-71
2022/04/08 09:22:14;;;;;;;4.00;1.98;;;10.30;99.90;;;;;;5084004;28;20591;-72
2022/04/08 09:24:41;;;;;;;5.05;2.03;;;10.60;99.90;;;;;;5088411;28;20260;-72
2022/04/08 09:27:09;;;;;;;3.13;1.88;;;10.80;99.90;;;;;;5082230;28;20238;-71
2022/04/08 09:29:38;;;;;;;4.45;1.80;;;10.70;99.90;;;;;;5085867;28;20293;-71
2022/04/08 09:32:09;;;;;;;4.03;1.98;;;11.00;99.90;;;;;;5087421;28;20198;-71
2022/04/08 09:34:37;;;;;;;8.85;2.35;;;10.60;99.90;;;;;;5085513;28;20221;-70
2022/04/08 09:37:10;;;;;;;2.38;1.60;;;10.20;99.90;;;;;;5086064;28;20199;-71
2022/04/08 09:39:37;;;;;;;4.93;1.83;;;10.10;99.90;;;;;;5083199;28;20201;-70
2022/04/08 09:42:08;;;;;;;5.13;1.80;;;10.00;99.90;;;;;;5083822;28;20260;-72
2022/04/08 09:44:37;;;;;;;4.72;1.60;;;9.60;99.90;;;;;;5089892;28;20226;-71
2022/04/08 09:47:05;;;;;;;5.05;1.40;;;9.90;99.90;;;;;;5082588;28;20269;-71
2022/04/08 09:49:32;;;;;;;3.60;1.50;;;10.90;99.90;;;;;;5079415;28;20195;-71
2022/04/08 09:52:02;;;;;;;2.47;1.23;;;11.70;99.90;;;;;;5085198;28;20643;-71
2022/04/08 09:54:32;;;;;;;4.15;1.70;;;11.60;99.60;;;;;;5081539;28;20702;-71
2022/04/08 09:56:59;;;;;;;4.05;1.00;;;12.00;98.10;;;;;;5087427;28;20280;-70
2022/04/08 09:59:29;;;;;;;3.53;1.50;;;12.40;96.00;;;;;;5065256;28;20198;-73
2022/04/08 10:01:58;;;;;;;4.50;1.17;;;12.40;95.20;;;;;;5060949;28;20290;-70
2022/04/08 10:04:27;;;;;;;6.13;1.45;;;11.80;96.20;;;;;;5068344;28;20590;-72
2022/04/08 10:06:55;;;;;;;5.18;2.03;;;11.30;97.30;;;;;;5083613;28;20577;-74
2022/04/08 10:09:25;;;;;;;2.55;1.25;;;10.80;99.30;;;;;;5091933;28;20283;-71
2022/04/08 10:12:00;;;;;;;5.47;1.17;;;10.80;99.90;;;;;;5079490;28;20211;-71
2022/04/08 10:14:38;;;;;;;5.85;1.55;;;10.60;99.90;;;;;;5072517;28;20575;-72
2022/04/08 10:17:05;;;;;;;5.82;1.55;;;10.60;99.90;;;;;;5074831;28;20256;-71
2022/04/08 10:19:35;;;;;;;3.70;1.67;;;10.70;99.90;;;;;;5065581;28;20310;-71
2022/04/08 10:22:02;;;;;;;3.47;1.70;;;11.00;99.90;;;;;;5071011;28;20286;-71
2022/04/08 10:24:30;;;;;;;6.35;2.38;;;11.60;99.30;;;;;;5075212;28;20273;-71
2022/04/08 10:27:00;;;;;;;7.78;1.92;;;11.50;97.60;;;;;;5066282;28;20280;-70
2022/04/08 10:29:27;;;;;;;2.03;1.23;;;11.90;97.10;;;;;;5068248;28;20200;-71
2022/04/08 10:31:58;;;;;;;2.38;1.25;;;12.10;95.80;;;;;;5075419;28;20207;-72
2022/04/08 10:34:26;;;;;;;8.05;1.77;;;11.70;96.10;;;;;;5090985;28;20262;-71
2022/04/08 10:36:54;;;;;;;5.97;1.70;;;10.90;97.20;;;;;;5084036;28;20215;-70
2022/04/08 10:39:23;;;;;;;6.03;1.75;;;11.10;98.10;;;;;;5083464;28;20624;-72
2022/04/08 10:41:51;;;;;;;9.50;2.40;;;11.60;97.00;;;;;;5083520;28;20246;-71
2022/04/08 10:44:31;;;;;;;4.60;1.90;;;11.70;96.70;;;;;;5077424;28;20277;-72
2022/04/08 10:47:00;;;;;;;2.75;1.67;;;11.60;95.20;;;;;;5084589;28;20197;-72
2022/04/08 10:49:27;;;;;;;2.25;1.40;;;11.50;95.80;;;;;;5083661;28;20572;-71
2022/04/08 10:51:55;;;;;;;2.58;2.35;;;10.90;96.80;;;;;;5079937;28;20234;-72
2022/04/08 10:54:34;;;;;;;6.75;2.90;;;10.70;99.20;;;;;;5087681;28;20234;-72
2022/04/08 10:57:02;;;;;;;4.57;2.05;;;10.50;99.90;;;;;;5088236;28;20218;-73
2022/04/08 10:59:29;;;;;;;5.93;1.50;;;10.20;99.90;;;;;;5087669;28;20558;-72
2022/04/08 11:02:02;;;;;;;2.30;1.00;;;10.30;99.90;;;;;;5084814;28;20198;-70
2022/04/08 11:04:30;;;;;;;5.85;4.05;;;10.00;99.90;;;;;;5092854;28;20252;-73
2022/04/08 11:07:04;;;;;;;6.97;1.70;;;10.00;99.90;;;;;;5075562;28;20570;-72
2022/04/08 11:09:32;;;;;;;2.65;1.40;;;9.50;99.90;;;;;;5079395;28;20264;-70
2022/04/08 11:11:59;;;;;;;2.55;1.80;;;9.10;99.90;;;;;;5075048;28;20290;-71
2022/04/08 11:14:28;;;;;;;3.97;1.50;;;9.00;99.90;;;;;;5088135;28;20659;-72
2022/04/08 11:16:54;;;;;;;1.95;1.50;;;9.20;99.90;;;;;;5089511;28;20216;-71
2022/04/08 11:19:22;;;;;;;2.45;1.52;;;9.40;99.90;;;;;;5081655;28;20236;-70
2022/04/08 11:21:51;;;;;;;5.53;1.20;;;9.60;99.90;;;;;;5087434;28;20213;-70
2022/04/08 11:24:20;;;;;;;2.90;1.23;;;10.10;99.90;;;;;;5080246;28;20233;-71
2022/04/08 11:26:48;;;;;;;2.22;1.20;;;10.60;99.90;;;;;;5085279;28;20200;-71
2022/04/08 11:29:16;;;;;;;1.38;1.10;;;11.00;99.90;;;;;;5083839;28;20207;-72
2022/04/08 11:31:44;;;;;;;3.80;1.52;;;11.10;99.90;;;;;;5089648;28;20198;-71
2022/04/08 11:34:13;;;;;;;3.65;1.85;;;10.90;99.90;;;;;;5083598;28;20259;-70
2022/04/08 11:36:40;;;;;;;1.83;1.52;;;10.80;99.90;;;;;;5088701;28;20256;-71
2022/04/08 11:39:09;;;;;;;2.58;1.80;;;10.90;99.90;;;;;;5088449;28;20246;-72
2022/04/08 11:41:38;;;;;;;2.50;1.60;;;10.70;99.90;;;;;;5088445;28;20319;-72
2022/04/08 11:44:07;;;;;;;4.65;2.25;;;10.50;99.90;;;;;;5088615;28;20317;-72
2022/04/08 11:46:35;;;;;;;8.30;2.90;;;10.20;99.90;;;;;;5096433;28;20197;-71
2022/04/08 11:49:04;;;;;;;3.25;2.47;;;9.70;99.90;;;;;;5079730;28;20626;-71
2022/04/08 11:51:31;;;;;;;4.55;3.08;;;9.10;99.90;;;;;;5076894;28;20297;-75
2022/04/08 11:54:02;;;;;;;5.45;2.70;;;8.80;99.90;;;;;;5085818;28;20225;-76
2022/04/08 11:56:29;;;;;;;4.68;2.78;;;8.30;99.90;;;;;;5085201;28;20206;-72
2022/04/08 11:59:00;;;;;;;4.55;2.83;;;8.10;99.90;;;;;;5079739;28;20206;-73
2022/04/08 12:01:31;;;;;;;6.70;4.13;;;8.00;99.90;;;;;;5078224;28;20726;-72
2022/04/08 12:04:01;;;;;;;4.88;3.22;;;8.00;99.90;;;;;;5077080;28;20225;-73
2022/04/08 12:06:36;;;;;;;6.88;4.25;;;8.20;99.90;;;;;;5086059;28;20651;-71
2022/04/08 12:09:04;;;;;;;7.18;3.13;;;8.40;99.90;;;;;;5085633;28;20321;-74
2022/04/08 12:11:34;;;;;;;5.18;2.80;;;8.60;99.90;;;;;;5083169;28;20205;-74
2022/04/08 12:14:04;;;;;;;4.72;3.00;;;8.70;99.90;;;;;;5077162;28;20230;-73
2022/04/08 12:16:31;;;;;;;6.80;3.40;;;8.80;99.90;;;;;;5085759;28;20261;-74
2022/04/08 12:18:58;;;;;;;8.20;3.55;;;8.70;99.90;;;;;;5074032;28;20694;-70
2022/04/08 12:21:27;;;;;;;5.72;3.63;;;8.80;99.90;;;;;;5073435;28;20561;-71
2022/04/08 12:23:55;;;;;;;8.93;3.40;;;8.70;99.90;;;;;;5076785;28;20700;-72
2022/04/08 12:26:29;;;;;;;4.03;2.08;;;8.80;99.90;;;;;;5072550;28;20302;-73
2022/04/08 12:29:11;;;;;;;1.58;1.40;;;8.70;99.90;;;;;;5084889;28;20292;-71
2022/04/08 12:31:46;;;;;;;1.95;1.75;;;8.40;99.90;;;;;;5081789;28;20195;-74
2022/04/08 12:34:14;;;;;;;2.55;2.35;;;8.20;99.90;;;;;;5092456;28;20228;-75
2022/04/08 12:36:41;;;;;;;3.80;1.65;;;8.10;99.90;;;;;;5094220;28;20296;-72
2022/04/08 12:39:09;;;;;;;5.80;2.10;;;7.80;99.90;;;;;;5094040;28;20231;-74
2022/04/08 12:41:39;;;;;;;5.40;3.15;;;7.70;99.90;;;;;;5093840;28;20209;-74
2022/04/08 12:44:06;;;;;;;2.08;1.88;;;7.80;99.90;;;;;;5093974;28;20324;-74
2022/04/08 12:46:34;;;;;;;4.05;3.05;;;8.00;99.90;;;;;;5097635;28;20212;-74
2022/04/08 12:49:01;;;;;;;3.75;1.42;;;8.40;99.90;;;;;;5085811;28;20653;-72
2022/04/08 12:51:28;;;;;;;3.55;2.03;;;8.60;99.90;;;;;;5083909;28;20293;-71
2022/04/08 12:53:55;;;;;;;4.47;3.45;;;8.80;99.90;;;;;;5084387;28;20222;-70
2022/04/08 12:56:24;;;;;;;2.40;2.20;;;9.00;99.90;;;;;;5082887;28;20306;-73
2022/04/08 12:58:51;;;;;;;5.32;2.20;;;9.00;99.90;;;;;;5088647;28;20198;-74